Time;durP1;ratioP1;P1;durP2;ratioP2;P2;SDS_P1;SDS_P2;PMS_P1;PMS_P2;Temp;Humidity;BMP_temperature;BMP_pressure;BME280_temperature;BME280_humidity;BME280_pressure;Samples;Min_cycle;Max_cycle;Signal;HPM_P1;HPM_P2
2022/02/18 00:00:01;;;;;;;3.00;1.00;;;6.30;99.90;;;;;;4190390;28;20037;-58
2022/02/18 00:02:03;;;;;;;5.93;1.33;;;6.30;99.90;;;;;;4188959;28;20561;-56
2022/02/18 00:04:04;;;;;;;4.00;1.40;;;6.30;99.90;;;;;;4193088;28;20052;-55
2022/02/18 00:06:05;;;;;;;2.90;1.40;;;6.30;99.90;;;;;;4202650;28;20422;-53
2022/02/18 00:08:07;;;;;;;6.37;2.00;;;6.30;99.90;;;;;;4209909;28;20093;-60
2022/02/18 00:10:09;;;;;;;7.20;2.33;;;6.20;99.90;;;;;;4203782;28;20091;-58
2022/02/18 00:12:11;;;;;;;7.33;1.80;;;6.20;99.90;;;;;;4193706;28;20085;-53
2022/02/18 00:14:13;;;;;;;5.00;1.93;;;6.20;99.90;;;;;;4191730;28;20471;-58
2022/02/18 00:16:14;;;;;;;11.23;3.83;;;6.20;99.90;;;;;;4192311;28;20082;-65
2022/02/18 00:18:15;;;;;;;7.47;2.30;;;6.20;99.90;;;;;;4191882;28;20053;-57
2022/02/18 00:20:16;;;;;;;13.70;6.27;;;6.20;99.90;;;;;;4191688;28;20089;-57
2022/02/18 00:22:18;;;;;;;26.73;7.03;;;6.20;99.90;;;;;;4192205;28;20994;-66
2022/02/18 00:24:19;;;;;;;17.87;5.87;;;6.20;99.90;;;;;;4189854;28;20029;-59
2022/02/18 00:26:20;;;;;;;9.23;3.90;;;6.20;99.90;;;;;;4208001;28;20047;-57
2022/02/18 00:28:22;;;;;;;7.70;2.83;;;6.20;99.90;;;;;;4208229;28;20265;-65
2022/02/18 00:30:24;;;;;;;2.93;1.87;;;6.10;99.90;;;;;;4209646;28;20121;-59
2022/02/18 00:32:25;;;;;;;4.90;1.93;;;6.10;99.90;;;;;;4208674;28;20024;-55
2022/02/18 00:34:26;;;;;;;2.60;1.30;;;6.00;99.90;;;;;;4209415;28;20268;-56
2022/02/18 00:36:27;;;;;;;4.53;1.93;;;6.00;99.90;;;;;;4209846;28;20287;-57
2022/02/18 00:38:28;;;;;;;2.57;1.80;;;6.00;99.90;;;;;;4225926;28;20813;-56
2022/02/18 00:40:30;;;;;;;5.17;1.33;;;5.90;99.90;;;;;;4225284;28;20028;-58
2022/02/18 00:42:31;;;;;;;3.60;1.10;;;5.90;99.90;;;;;;4224356;28;20281;-61
2022/02/18 00:44:32;;;;;;;2.23;0.70;;;5.90;99.90;;;;;;4221912;28;20334;-54
2022/02/18 00:46:33;;;;;;;2.60;0.80;;;5.80;99.90;;;;;;4209103;28;20318;-58
2022/02/18 00:48:35;;;;;;;1.73;0.70;;;5.70;99.90;;;;;;4207726;28;20334;-65
2022/02/18 00:50:36;;;;;;;3.27;1.20;;;5.60;99.90;;;;;;4208465;28;20762;-54
2022/02/18 00:52:37;;;;;;;2.90;1.00;;;5.60;99.90;;;;;;4208669;28;20264;-56
2022/02/18 00:54:38;;;;;;;3.63;1.10;;;5.50;99.90;;;;;;4208211;28;20273;-59
2022/02/18 00:56:40;;;;;;;3.87;1.43;;;5.40;99.90;;;;;;4208650;28;20667;-55
2022/02/18 00:58:41;;;;;;;3.63;0.60;;;5.40;99.90;;;;;;4207361;28;20928;-65
2022/02/18 01:00:42;;;;;;;1.63;0.80;;;5.40;99.90;;;;;;4209390;28;20658;-63
2022/02/18 01:02:44;;;;;;;2.53;1.03;;;5.30;99.90;;;;;;4207772;28;20295;-54
2022/02/18 01:04:45;;;;;;;2.73;0.90;;;5.20;99.90;;;;;;4208857;28;20265;-68
2022/02/18 01:06:47;;;;;;;1.87;0.60;;;5.20;99.90;;;;;;4207328;28;20269;-62
2022/02/18 01:08:48;;;;;;;1.77;0.90;;;5.10;99.90;;;;;;4208579;28;20338;-62
2022/02/18 01:10:49;;;;;;;1.93;0.80;;;5.10;99.90;;;;;;4207806;28;20318;-60
2022/02/18 01:12:50;;;;;;;2.47;0.60;;;5.00;99.90;;;;;;4208530;28;20833;-64
2022/02/18 01:14:51;;;;;;;3.37;1.50;;;4.90;99.90;;;;;;4208049;28;20679;-68
2022/02/18 01:16:53;;;;;;;1.43;0.50;;;4.80;99.90;;;;;;4207511;28;20288;-59
2022/02/18 01:18:54;;;;;;;2.43;1.10;;;4.70;99.90;;;;;;4207372;28;20656;-55
2022/02/18 01:20:55;;;;;;;1.87;0.47;;;4.60;99.90;;;;;;4207965;28;20818;-60
2022/02/18 01:22:56;;;;;;;3.37;1.07;;;4.50;99.90;;;;;;4208076;28;20778;-57
2022/02/18 01:24:57;;;;;;;4.00;1.00;;;4.30;99.90;;;;;;4207802;28;20265;-59
2022/02/18 01:26:59;;;;;;;3.93;0.60;;;4.20;99.90;;;;;;4208326;28;20285;-58
2022/02/18 01:29:01;;;;;;;2.17;1.10;;;4.20;99.90;;;;;;4206838;28;20338;-57
2022/02/18 01:31:02;;;;;;;3.07;0.77;;;4.10;99.90;;;;;;4210546;28;20801;-55
2022/02/18 01:33:04;;;;;;;2.70;1.00;;;4.10;99.90;;;;;;4209938;28;20277;-63
2022/02/18 01:35:06;;;;;;;2.20;0.80;;;3.90;99.90;;;;;;4208206;28;20276;-54
2022/02/18 01:37:08;;;;;;;5.50;1.20;;;3.90;99.90;;;;;;4220200;28;20767;-56
2022/02/18 01:39:12;;;;;;;2.70;0.87;;;3.90;99.90;;;;;;4224907;28;20329;-58
2022/02/18 01:41:13;;;;;;;1.90;1.10;;;3.80;99.90;;;;;;4223965;28;20268;-63
2022/02/18 01:43:14;;;;;;;3.10;1.20;;;3.80;99.90;;;;;;4224653;28;20292;-55
2022/02/18 01:45:15;;;;;;;4.13;1.37;;;3.70;99.90;;;;;;4223489;28;20279;-59
2022/02/18 01:47:23;;;;;;;5.33;1.97;;;3.70;99.90;;;;;;4224804;28;20352;-61
2022/02/18 01:49:24;;;;;;;7.47;1.77;;;3.60;99.90;;;;;;4221907;28;20272;-56
2022/02/18 01:51:25;;;;;;;2.30;1.37;;;3.60;99.90;;;;;;4225001;28;20318;-64
2022/02/18 01:53:26;;;;;;;3.33;1.87;;;3.50;99.90;;;;;;4223902;28;20252;-54
2022/02/18 01:55:28;;;;;;;6.13;1.20;;;3.50;99.90;;;;;;4223933;28;20709;-61
2022/02/18 01:57:29;;;;;;;4.67;1.47;;;3.50;99.90;;;;;;4224414;28;20353;-55
2022/02/18 01:59:30;;;;;;;7.70;1.57;;;3.40;99.90;;;;;;4223793;28;20708;-67
2022/02/18 02:01:31;;;;;;;6.03;1.10;;;3.40;99.90;;;;;;4224279;28;20272;-61
2022/02/18 02:03:32;;;;;;;1.93;0.93;;;3.20;99.90;;;;;;4223542;28;20257;-54
2022/02/18 02:05:34;;;;;;;4.90;1.90;;;3.20;99.90;;;;;;4224337;28;20264;-63
2022/02/18 02:07:37;;;;;;;3.80;1.40;;;3.00;99.90;;;;;;4223938;28;20317;-56
2022/02/18 02:09:39;;;;;;;2.53;0.93;;;3.00;99.90;;;;;;4225128;28;21104;-62
2022/02/18 02:11:40;;;;;;;1.23;1.13;;;2.90;99.90;;;;;;4221538;28;20345;-54
2022/02/18 02:13:45;;;;;;;3.93;0.97;;;2.90;99.90;;;;;;4224418;28;20284;-64
2022/02/18 02:15:46;;;;;;;1.20;1.03;;;2.80;99.90;;;;;;4223177;28;20288;-57
2022/02/18 02:17:48;;;;;;;5.30;1.90;;;2.80;99.90;;;;;;4223929;28;20341;-60
2022/02/18 02:19:49;;;;;;;2.57;1.40;;;2.80;99.90;;;;;;4222969;28;20260;-61
2022/02/18 02:21:52;;;;;;;4.20;2.23;;;2.80;99.90;;;;;;4219159;28;20273;-60
2022/02/18 02:23:54;;;;;;;3.57;2.43;;;2.80;99.90;;;;;;4206796;28;20260;-64
2022/02/18 02:25:56;;;;;;;3.10;1.57;;;2.80;99.90;;;;;;4206037;28;20345;-60
2022/02/18 02:27:57;;;;;;;4.67;2.03;;;2.90;99.90;;;;;;4206419;28;20318;-55
2022/02/18 02:29:58;;;;;;;3.20;2.40;;;2.90;99.90;;;;;;4209101;28;20281;-67
2022/02/18 02:32:00;;;;;;;2.53;1.83;;;2.90;99.90;;;;;;4223428;28;20248;-62
2022/02/18 02:34:01;;;;;;;2.97;1.77;;;2.90;99.90;;;;;;4221342;28;20756;-62
2022/02/18 02:36:02;;;;;;;2.60;1.93;;;2.90;99.90;;;;;;4224655;28;21077;-57
2022/02/18 02:38:03;;;;;;;2.87;1.37;;;2.90;99.90;;;;;;4222471;28;20316;-58
2022/02/18 02:40:05;;;;;;;1.80;1.40;;;2.80;99.90;;;;;;4224163;28;21023;-59
2022/02/18 02:42:07;;;;;;;5.20;1.90;;;2.70;99.90;;;;;;4223053;28;20747;-53
2022/02/18 02:44:08;;;;;;;5.00;2.30;;;2.60;99.90;;;;;;4223891;28;20272;-62
2022/02/18 02:46:10;;;;;;;2.70;1.53;;;2.50;99.90;;;;;;4220852;28;20268;-53
2022/02/18 02:48:11;;;;;;;7.27;1.87;;;2.40;99.90;;;;;;4224458;28;20279;-53
2022/02/18 02:50:14;;;;;;;3.07;2.20;;;2.40;99.90;;;;;;4222791;28;20272;-62
2022/02/18 02:52:15;;;;;;;2.23;1.50;;;2.40;99.90;;;;;;4224389;28;20267;-58
2022/02/18 02:54:17;;;;;;;1.83;1.40;;;2.30;99.90;;;;;;4221071;28;20325;-64
2022/02/18 02:56:18;;;;;;;1.97;1.17;;;2.30;99.90;;;;;;4223253;28;20268;-66
2022/02/18 02:58:19;;;;;;;2.53;1.23;;;2.30;99.90;;;;;;4223151;28;20656;-57
2022/02/18 03:00:20;;;;;;;1.30;1.00;;;2.30;99.90;;;;;;4223179;28;20325;-59
2022/02/18 03:02:22;;;;;;;1.07;0.97;;;2.20;99.90;;;;;;4223393;28;21585;-64
2022/02/18 03:04:23;;;;;;;1.30;1.20;;;2.20;99.90;;;;;;4223308;28;20341;-57
2022/02/18 03:06:24;;;;;;;1.07;1.00;;;2.20;99.90;;;;;;4224149;28;20260;-55
2022/02/18 03:08:25;;;;;;;2.77;1.00;;;2.20;99.90;;;;;;4222890;28;20276;-54
2022/02/18 03:10:26;;;;;;;2.03;1.23;;;2.20;99.90;;;;;;4219938;28;20342;-57
2022/02/18 03:12:27;;;;;;;3.30;0.80;;;2.20;99.90;;;;;;4205972;28;20269;-56
2022/02/18 03:14:29;;;;;;;1.60;1.00;;;2.20;99.90;;;;;;4207230;28;20318;-57
2022/02/18 03:16:30;;;;;;;4.00;1.30;;;2.30;99.90;;;;;;4206490;28;20273;-68
2022/02/18 03:18:32;;;;;;;1.93;1.60;;;2.30;99.90;;;;;;4221512;28;20299;-55
2022/02/18 03:20:33;;;;;;;1.40;1.13;;;2.30;99.90;;;;;;4222674;28;20264;-59
2022/02/18 03:22:35;;;;;;;2.20;1.23;;;2.30;99.90;;;;;;4223627;28;20279;-58
2022/02/18 03:24:36;;;;;;;3.33;2.00;;;2.30;99.90;;;;;;4222226;28;20767;-55
2022/02/18 03:26:37;;;;;;;6.70;1.80;;;2.30;99.90;;;;;;4221101;28;20360;-54
2022/02/18 03:28:39;;;;;;;3.73;1.83;;;2.30;99.90;;;;;;4205584;28;20256;-54
2022/02/18 03:30:41;;;;;;;2.47;1.77;;;2.30;99.90;;;;;;4206318;28;20591;-61
2022/02/18 03:32:42;;;;;;;2.50;1.77;;;2.30;99.90;;;;;;4205895;28;20298;-67
2022/02/18 03:34:43;;;;;;;2.47;1.33;;;2.30;99.90;;;;;;4205597;28;20273;-59
2022/02/18 03:36:44;;;;;;;2.60;1.60;;;2.30;99.90;;;;;;4206622;28;20261;-55
2022/02/18 03:38:46;;;;;;;3.67;1.80;;;2.20;99.90;;;;;;4208861;28;20281;-55
2022/02/18 03:40:47;;;;;;;4.00;1.30;;;2.20;99.90;;;;;;4211000;28;20827;-58
2022/02/18 03:42:48;;;;;;;3.23;1.40;;;2.20;99.90;;;;;;4216405;28;20291;-59
2022/02/18 03:44:49;;;;;;;2.97;1.83;;;2.20;99.90;;;;;;4226973;28;20297;-59
2022/02/18 03:46:50;;;;;;;4.30;1.40;;;2.20;99.90;;;;;;4225552;28;20592;-53
2022/02/18 03:48:52;;;;;;;3.37;1.00;;;2.20;99.90;;;;;;4227568;28;20263;-50
2022/02/18 03:50:53;;;;;;;1.97;1.13;;;2.10;99.90;;;;;;4225256;28;20347;-58
2022/02/18 03:52:57;;;;;;;2.97;1.30;;;2.10;99.90;;;;;;4227176;28;20260;-55
2022/02/18 03:54:58;;;;;;;1.90;1.17;;;2.10;99.90;;;;;;4225419;28;20267;-56
2022/02/18 03:56:59;;;;;;;1.30;0.93;;;2.10;99.90;;;;;;4227237;28;20309;-57
2022/02/18 03:59:00;;;;;;;2.97;1.37;;;2.10;99.90;;;;;;4225523;28;20313;-52
2022/02/18 04:01:01;;;;;;;2.50;1.30;;;2.10;99.90;;;;;;4226099;28;20267;-54
2022/02/18 04:03:03;;;;;;;2.17;1.10;;;2.10;99.90;;;;;;4224128;28;20292;-62
2022/02/18 04:05:04;;;;;;;1.87;1.20;;;2.00;99.90;;;;;;4226355;28;20264;-54
2022/02/18 04:07:07;;;;;;;4.40;1.73;;;2.00;99.90;;;;;;4226450;28;20268;-60
2022/02/18 04:09:08;;;;;;;2.87;1.23;;;2.10;99.90;;;;;;4224680;28;20767;-58
2022/02/18 04:11:09;;;;;;;3.13;1.80;;;2.00;99.90;;;;;;4225371;28;20260;-63
2022/02/18 04:13:10;;;;;;;2.27;1.70;;;2.00;99.90;;;;;;4208339;28;20334;-54
2022/02/18 04:15:12;;;;;;;7.33;2.00;;;2.00;99.90;;;;;;4209783;28;20321;-67
2022/02/18 04:17:13;;;;;;;3.17;2.00;;;2.00;99.90;;;;;;4209450;28;20264;-58
2022/02/18 04:19:14;;;;;;;5.07;2.50;;;2.00;99.90;;;;;;4209282;28;20445;-68
2022/02/18 04:21:15;;;;;;;4.27;1.83;;;1.90;99.90;;;;;;4222665;28;20268;-61
2022/02/18 04:23:16;;;;;;;4.27;2.43;;;1.90;99.90;;;;;;4226910;28;20268;-56
2022/02/18 04:25:18;;;;;;;11.00;2.93;;;1.90;99.90;;;;;;4225467;28;20272;-63
2022/02/18 04:27:19;;;;;;;10.50;2.53;;;1.90;99.90;;;;;;4226068;28;20408;-61
2022/02/18 04:29:20;;;;;;;17.33;8.27;;;1.90;99.90;;;;;;4209013;28;20618;-57
2022/02/18 04:31:21;;;;;;;9.13;5.23;;;2.00;99.90;;;;;;4209928;28;20288;-66
2022/02/18 04:33:22;;;;;;;5.77;3.60;;;2.00;99.90;;;;;;4208501;28;20322;-55
2022/02/18 04:35:24;;;;;;;6.23;3.40;;;2.00;99.90;;;;;;4208738;28;20289;-54
2022/02/18 04:37:25;;;;;;;6.77;3.37;;;2.00;99.90;;;;;;4208211;28;20281;-54
2022/02/18 04:39:26;;;;;;;4.63;2.50;;;2.10;99.90;;;;;;4208078;28;20397;-61
2022/02/18 04:41:27;;;;;;;7.10;3.40;;;2.10;99.90;;;;;;4209367;28;20768;-60
2022/02/18 04:43:29;;;;;;;7.77;4.97;;;2.10;99.90;;;;;;4208028;28;20333;-60
2022/02/18 04:45:30;;;;;;;12.07;4.07;;;2.10;99.90;;;;;;4210520;28;20436;-54
2022/02/18 04:47:31;;;;;;;7.03;3.20;;;2.20;99.90;;;;;;4207652;28;20330;-57
2022/02/18 04:49:32;;;;;;;6.80;3.50;;;2.20;99.90;;;;;;4208728;28;20331;-55
2022/02/18 04:51:33;;;;;;;6.73;2.77;;;2.30;99.90;;;;;;4214603;28;20785;-59
2022/02/18 04:53:35;;;;;;;6.97;2.60;;;2.30;99.90;;;;;;4225606;28;20268;-55
2022/02/18 04:55:37;;;;;;;5.60;3.10;;;2.40;99.90;;;;;;4224421;28;20264;-52
2022/02/18 04:57:46;;;;;;;4.60;2.60;;;2.40;99.90;;;;;;4225878;28;20321;-56
2022/02/18 04:59:47;;;;;;;3.77;2.90;;;2.50;99.90;;;;;;4224556;28;20317;-56
2022/02/18 05:01:48;;;;;;;6.77;3.40;;;2.50;99.90;;;;;;4209484;28;21132;-65
2022/02/18 05:03:50;;;;;;;7.77;3.50;;;2.50;99.90;;;;;;4208241;28;20276;-65
2022/02/18 05:05:51;;;;;;;2.97;2.60;;;2.50;99.90;;;;;;4214533;28;20320;-57
2022/02/18 05:07:53;;;;;;;6.30;3.00;;;2.50;99.90;;;;;;4213780;28;20272;-67
2022/02/18 05:09:54;;;;;;;7.53;2.90;;;2.50;99.90;;;;;;4208085;28;20273;-58
2022/02/18 05:11:55;;;;;;;5.53;3.00;;;2.50;99.90;;;;;;4208647;28;20248;-53
2022/02/18 05:13:56;;;;;;;16.63;3.67;;;2.60;99.90;;;;;;4207376;28;20284;-63
2022/02/18 05:15:57;;;;;;;5.40;3.60;;;2.60;99.90;;;;;;4210215;28;20409;-58
2022/02/18 05:18:03;;;;;;;7.43;3.23;;;2.60;99.90;;;;;;4206013;28;20925;-57
2022/02/18 05:20:05;;;;;;;6.33;3.23;;;2.60;99.90;;;;;;4207811;28;20278;-60
2022/02/18 05:22:06;;;;;;;7.20;3.67;;;2.60;99.90;;;;;;4206523;28;20281;-55
2022/02/18 05:24:07;;;;;;;7.53;3.50;;;2.60;99.90;;;;;;4209869;28;20279;-62
2022/02/18 05:26:09;;;;;;;6.50;3.70;;;2.60;99.90;;;;;;4208099;28;20337;-58
2022/02/18 05:28:10;;;;;;;7.13;3.87;;;2.60;99.90;;;;;;4208343;28;20257;-62
2022/02/18 05:30:11;;;;;;;6.60;3.80;;;2.60;99.90;;;;;;4206361;28;20273;-66
2022/02/18 05:32:12;;;;;;;4.47;2.67;;;2.70;99.90;;;;;;4207779;28;20961;-59
2022/02/18 05:34:13;;;;;;;5.47;2.90;;;2.70;99.90;;;;;;4206339;28;20264;-56
2022/02/18 05:36:14;;;;;;;7.63;3.70;;;2.70;99.90;;;;;;4207019;28;20261;-59
2022/02/18 05:38:15;;;;;;;7.53;3.53;;;2.70;99.90;;;;;;4202816;28;20316;-60
2022/02/18 05:40:17;;;;;;;4.63;3.43;;;2.70;99.90;;;;;;4209498;28;20345;-61
2022/02/18 05:42:18;;;;;;;7.90;4.07;;;2.80;99.90;;;;;;4207279;28;20677;-57
2022/02/18 05:44:19;;;;;;;16.97;4.23;;;2.80;99.90;;;;;;4205918;28;20276;-59
2022/02/18 05:46:20;;;;;;;9.30;5.00;;;2.80;99.90;;;;;;4207016;28;20273;-61
2022/02/18 05:48:21;;;;;;;7.37;4.07;;;2.80;99.90;;;;;;4205580;28;20851;-58
2022/02/18 05:50:23;;;;;;;12.93;5.40;;;2.80;99.90;;;;;;4206844;28;20332;-60
2022/02/18 05:52:24;;;;;;;13.57;5.30;;;2.80;99.90;;;;;;4203842;28;21118;-52
2022/02/18 05:54:25;;;;;;;13.10;5.60;;;2.90;99.90;;;;;;4198398;28;20273;-68
2022/02/18 05:56:26;;;;;;;15.40;6.20;;;2.90;99.90;;;;;;4222161;28;20301;-56
2022/02/18 05:58:27;;;;;;;12.93;6.30;;;2.90;99.90;;;;;;4222238;28;20280;-58
2022/02/18 06:00:28;;;;;;;5.93;3.50;;;2.90;99.90;;;;;;4221321;27;20276;-56
2022/02/18 06:02:30;;;;;;;6.67;3.80;;;3.00;99.90;;;;;;4224221;28;20284;-50
2022/02/18 06:04:31;;;;;;;8.97;4.00;;;3.20;99.90;;;;;;4222939;28;20298;-66
2022/02/18 06:06:32;;;;;;;7.40;4.17;;;3.30;99.90;;;;;;4224160;28;20290;-59
2022/02/18 06:08:33;;;;;;;8.23;3.50;;;3.30;99.90;;;;;;4223545;28;20248;-58
2022/02/18 06:10:37;;;;;;;11.50;4.83;;;3.30;99.90;;;;;;4223439;28;20264;-61
2022/02/18 06:12:38;;;;;;;7.57;4.03;;;3.30;99.90;;;;;;4223895;28;20276;-58
2022/02/18 06:14:39;;;;;;;12.10;3.87;;;3.40;99.90;;;;;;4219122;28;20329;-57
2022/02/18 06:16:40;;;;;;;7.87;3.83;;;3.40;99.90;;;;;;4205294;28;20348;-53
2022/02/18 06:18:42;;;;;;;13.37;4.90;;;3.40;99.90;;;;;;4204941;28;20748;-66
2022/02/18 06:20:43;;;;;;;10.57;5.57;;;3.40;99.90;;;;;;4206890;28;20882;-61
2022/02/18 06:22:44;;;;;;;10.00;5.27;;;3.40;99.90;;;;;;4216122;28;20292;-55
2022/02/18 06:24:46;;;;;;;9.00;4.30;;;3.60;99.90;;;;;;4210902;28;20332;-61
2022/02/18 06:26:47;;;;;;;13.50;6.63;;;3.80;99.90;;;;;;4222360;28;20288;-56
2022/02/18 06:28:48;;;;;;;9.87;6.17;;;4.20;99.90;;;;;;4210830;28;21219;-61
2022/02/18 06:30:49;;;;;;;14.43;6.33;;;4.40;99.90;;;;;;4205831;28;20276;-60
2022/02/18 06:32:50;;;;;;;8.30;4.47;;;4.60;99.90;;;;;;4206686;28;20440;-57
2022/02/18 06:34:52;;;;;;;10.83;4.77;;;4.70;99.90;;;;;;4205464;28;20269;-62
2022/02/18 06:36:53;;;;;;;8.43;4.00;;;4.60;99.90;;;;;;4206572;28;20265;-60
2022/02/18 06:38:54;;;;;;;10.37;4.70;;;4.60;99.90;;;;;;4201213;28;20850;-57
2022/02/18 06:40:55;;;;;;;11.30;4.83;;;4.80;99.90;;;;;;4216439;28;20342;-55
2022/02/18 06:42:57;;;;;;;12.77;4.80;;;5.20;99.90;;;;;;4205143;28;20318;-66
2022/02/18 06:44:58;;;;;;;10.60;5.20;;;5.70;99.90;;;;;;4205516;28;20322;-55
2022/02/18 06:46:59;;;;;;;10.50;4.60;;;6.30;99.90;;;;;;4206658;28;20277;-70
2022/02/18 06:49:01;;;;;;;8.13;4.37;;;6.80;99.90;;;;;;4205734;28;20351;-53
2022/02/18 06:51:02;;;;;;;10.80;3.73;;;7.30;99.90;;;;;;4206461;28;20276;-70
2022/02/18 06:53:05;;;;;;;7.87;3.43;;;7.80;99.90;;;;;;4204764;28;20105;-60
2022/02/18 06:55:07;;;;;;;7.70;3.23;;;8.10;99.90;;;;;;4206912;28;20097;-70
2022/02/18 06:57:09;;;;;;;7.23;3.17;;;8.20;99.90;;;;;;4205302;28;20036;-64
2022/02/18 06:59:10;;;;;;;4.13;2.30;;;8.10;99.90;;;;;;4213326;28;20055;-63
2022/02/18 07:01:11;;;;;;;7.73;1.90;;;8.10;99.90;;;;;;4221459;28;20023;-65
2022/02/18 07:03:12;;;;;;;7.23;2.33;;;8.00;99.90;;;;;;4212716;28;20036;-59
2022/02/18 07:05:15;;;;;;;5.17;2.03;;;8.00;99.90;;;;;;4204825;28;20036;-59
2022/02/18 07:07:16;;;;;;;6.37;3.13;;;8.00;99.90;;;;;;4206313;28;20024;-59
2022/02/18 07:09:18;;;;;;;12.57;3.27;;;7.90;99.90;;;;;;4206401;28;20040;-56
2022/02/18 07:11:21;;;;;;;5.50;2.33;;;8.10;99.90;;;;;;4204765;28;20486;-61
2022/02/18 07:13:23;;;;;;;7.00;2.10;;;8.00;99.90;;;;;;4205397;28;20346;-59
2022/02/18 07:15:24;;;;;;;11.70;4.67;;;7.90;99.90;;;;;;4205674;28;20144;-62
2022/02/18 07:17:27;;;;;;;6.90;2.10;;;7.70;99.90;;;;;;4206022;28;20085;-63
2022/02/18 07:19:29;;;;;;;3.83;1.73;;;7.40;99.90;;;;;;4204561;28;20389;-69
2022/02/18 07:21:30;;;;;;;4.40;2.10;;;7.40;99.90;;;;;;4205731;28;20036;-54
2022/02/18 07:23:31;;;;;;;3.87;2.00;;;7.40;99.90;;;;;;4205351;28;20031;-54
2022/02/18 07:25:32;;;;;;;8.17;3.17;;;7.40;99.90;;;;;;4205081;28;20044;-59
2022/02/18 07:27:34;;;;;;;5.97;2.40;;;7.70;99.90;;;;;;4204763;28;20082;-58
2022/02/18 07:29:35;;;;;;;9.13;2.80;;;7.80;99.90;;;;;;4189869;28;20091;-56
2022/02/18 07:31:36;;;;;;;5.67;2.63;;;7.80;99.90;;;;;;4201231;28;20036;-62
2022/02/18 07:33:37;;;;;;;6.10;2.30;;;7.80;99.90;;;;;;4205927;28;20036;-59
2022/02/18 07:35:38;;;;;;;7.20;2.00;;;7.90;99.90;;;;;;4204281;28;20542;-57
2022/02/18 07:37:40;;;;;;;7.20;2.27;;;8.00;99.90;;;;;;4205994;28;20476;-63
2022/02/18 07:39:41;;;;;;;8.03;3.33;;;7.90;99.90;;;;;;4204697;28;20036;-53
2022/02/18 07:41:42;;;;;;;7.30;2.20;;;7.90;99.90;;;;;;4205870;28;20044;-54
2022/02/18 07:43:44;;;;;;;9.07;2.83;;;7.80;99.90;;;;;;4204612;28;20089;-55
2022/02/18 07:45:45;;;;;;;12.40;3.60;;;7.80;99.90;;;;;;4204858;28;20375;-59
2022/02/18 07:47:52;;;;;;;5.97;2.20;;;8.10;99.90;;;;;;4205909;28;20040;-69
2022/02/18 07:49:53;;;;;;;7.57;2.40;;;8.10;99.90;;;;;;4204136;28;20081;-60
2022/02/18 07:51:54;;;;;;;8.17;2.10;;;8.20;99.90;;;;;;4208672;28;20016;-56
2022/02/18 07:53:55;;;;;;;5.27;1.80;;;8.30;99.90;;;;;;4206180;28;20028;-54
2022/02/18 07:55:56;;;;;;;9.47;2.47;;;8.10;99.90;;;;;;4207162;28;20024;-56
2022/02/18 07:57:57;;;;;;;7.33;1.90;;;7.90;99.90;;;;;;4205305;28;20036;-60
2022/02/18 07:59:58;;;;;;;6.53;1.77;;;8.20;99.90;;;;;;4206569;28;20140;-62
2022/02/18 08:02:00;;;;;;;5.63;2.00;;;8.10;99.90;;;;;;4205412;28;20035;-61
2022/02/18 08:04:01;;;;;;;5.87;1.60;;;8.20;99.90;;;;;;4206956;28;20048;-59
2022/02/18 08:06:02;;;;;;;4.53;1.83;;;8.10;99.90;;;;;;4204655;28;20036;-66
2022/02/18 08:08:03;;;;;;;8.67;1.53;;;7.90;99.90;;;;;;4206597;28;20082;-63
2022/02/18 08:10:06;;;;;;;2.97;1.07;;;7.70;99.90;;;;;;4205141;28;20400;-56
2022/02/18 08:12:08;;;;;;;6.80;1.50;;;7.40;99.90;;;;;;4205999;28;20414;-59
2022/02/18 08:14:09;;;;;;;3.27;1.20;;;7.00;99.90;;;;;;4211361;28;20077;-57
2022/02/18 08:16:10;;;;;;;2.47;1.10;;;6.60;99.90;;;;;;4222840;28;20073;-59
2022/02/18 08:18:17;;;;;;;8.73;2.13;;;6.50;99.90;;;;;;4222877;28;20357;-55
2022/02/18 08:20:18;;;;;;;20.07;8.07;;;6.30;99.90;;;;;;4218243;28;20089;-56
2022/02/18 08:22:20;;;;;;;14.63;5.07;;;6.20;99.90;;;;;;4204339;28;20036;-55
2022/02/18 08:24:21;;;;;;;6.63;2.03;;;6.10;99.90;;;;;;4207649;28;20024;-61
2022/02/18 08:26:23;;;;;;;9.90;4.90;;;6.00;99.90;;;;;;4209987;28;20052;-59
2022/02/18 08:28:24;;;;;;;12.93;4.53;;;5.90;99.90;;;;;;4209384;28;20350;-62
2022/02/18 08:30:25;;;;;;;13.23;6.40;;;5.90;99.90;;;;;;4209527;28;20322;-54
2022/02/18 08:32:26;;;;;;;9.83;4.50;;;5.90;99.90;;;;;;4208157;28;20431;-51
2022/02/18 08:34:28;;;;;;;12.03;5.70;;;6.20;99.90;;;;;;4208690;28;20288;-61
2022/02/18 08:36:32;;;;;;;9.30;4.20;;;6.50;99.90;;;;;;4206693;28;20289;-53
2022/02/18 08:38:34;;;;;;;9.00;3.93;;;6.70;99.90;;;;;;4225030;28;20288;-55
2022/02/18 08:40:35;;;;;;;11.43;2.80;;;7.00;99.90;;;;;;4225100;28;20256;-56
2022/02/18 08:42:36;;;;;;;12.57;4.70;;;7.30;99.90;;;;;;4225889;28;20041;-56
2022/02/18 08:44:38;;;;;;;8.73;3.73;;;7.40;99.90;;;;;;4225091;28;20294;-57
2022/02/18 08:46:39;;;;;;;4.73;2.10;;;7.30;99.90;;;;;;4224542;28;20276;-57
2022/02/18 08:48:40;;;;;;;6.63;2.07;;;6.90;99.90;;;;;;4225498;28;20096;-58
2022/02/18 08:50:41;;;;;;;7.57;3.00;;;6.70;99.90;;;;;;4214526;28;20125;-53
2022/02/18 08:52:45;;;;;;;10.13;3.73;;;6.50;99.90;;;;;;4208538;28;20520;-57
2022/02/18 08:54:47;;;;;;;6.33;2.43;;;6.60;99.90;;;;;;4224933;28;20580;-56
2022/02/18 08:56:49;;;;;;;11.93;4.33;;;6.90;99.90;;;;;;4213711;28;20269;-48
2022/02/18 08:58:51;;;;;;;4.00;2.20;;;7.20;99.90;;;;;;4207715;28;20089;-50
2022/02/18 09:00:53;;;;;;;5.50;2.50;;;7.10;99.90;;;;;;4208583;28;20602;-51
2022/02/18 09:02:54;;;;;;;5.50;1.57;;;7.00;99.90;;;;;;4206930;28;20089;-54
2022/02/18 09:04:55;;;;;;;10.93;4.30;;;7.00;99.90;;;;;;4208574;28;20441;-55
2022/02/18 09:06:57;;;;;;;5.83;2.30;;;6.80;99.90;;;;;;4207527;28;20089;-57
2022/02/18 09:09:00;;;;;;;7.33;2.60;;;6.80;99.90;;;;;;4209083;28;20032;-57
2022/02/18 09:11:01;;;;;;;11.10;2.60;;;6.90;99.90;;;;;;4208467;28;20089;-60
2022/02/18 09:13:02;;;;;;;6.73;2.40;;;7.10;99.90;;;;;;4221293;28;20062;-59
2022/02/18 09:15:05;;;;;;;6.13;1.40;;;7.30;99.90;;;;;;4218042;28;20487;-57
2022/02/18 09:17:07;;;;;;;6.20;2.07;;;7.60;99.90;;;;;;4213233;28;20081;-56
2022/02/18 09:19:08;;;;;;;18.83;3.03;;;7.80;99.90;;;;;;4205284;28;20040;-62
2022/02/18 09:21:10;;;;;;;7.63;2.50;;;8.00;99.90;;;;;;4217398;28;20482;-59
2022/02/18 09:23:11;;;;;;;5.23;1.50;;;8.00;99.90;;;;;;4210231;28;20036;-57
2022/02/18 09:25:13;;;;;;;14.20;2.07;;;8.20;99.90;;;;;;4206996;28;20424;-60
2022/02/18 09:27:14;;;;;;;5.07;2.40;;;8.00;99.90;;;;;;4207825;28;20056;-57
2022/02/18 09:29:16;;;;;;;5.87;1.87;;;8.00;99.90;;;;;;4215474;28;20857;-58
2022/02/18 09:31:17;;;;;;;2.73;1.60;;;8.10;99.90;;;;;;4223216;28;20043;-59
2022/02/18 09:33:19;;;;;;;4.33;1.60;;;8.10;99.90;;;;;;4205244;28;20802;-57
2022/02/18 09:35:20;;;;;;;8.97;1.83;;;8.20;99.60;;;;;;4206529;28;20077;-57
2022/02/18 09:37:21;;;;;;;8.07;1.60;;;8.30;99.50;;;;;;4204660;28;20036;-57
2022/02/18 09:39:22;;;;;;;7.83;1.63;;;8.30;99.00;;;;;;4207101;28;20036;-61
2022/02/18 09:41:24;;;;;;;7.90;1.87;;;8.50;99.10;;;;;;4207118;28;20027;-60
2022/02/18 09:43:25;;;;;;;5.10;1.60;;;8.80;98.80;;;;;;4224054;28;20032;-65
2022/02/18 09:45:27;;;;;;;5.63;1.53;;;9.00;98.90;;;;;;4212084;28;20077;-60
2022/02/18 09:47:32;;;;;;;4.50;0.90;;;9.10;98.70;;;;;;4206065;28;20097;-57
2022/02/18 09:49:34;;;;;;;5.13;1.60;;;9.20;97.80;;;;;;4205334;28;20024;-60
2022/02/18 09:51:38;;;;;;;9.77;1.73;;;9.20;97.50;;;;;;4213527;28;20915;-60
2022/02/18 09:53:39;;;;;;;3.23;1.30;;;9.30;97.50;;;;;;4222638;28;20289;-54
2022/02/18 09:55:40;;;;;;;5.83;1.77;;;9.30;97.40;;;;;;4212451;28;20037;-57
2022/02/18 09:57:45;;;;;;;10.40;1.47;;;9.50;97.20;;;;;;4206461;28;20028;-56
2022/02/18 09:59:47;;;;;;;8.67;1.17;;;9.60;97.00;;;;;;4205067;28;20058;-57
2022/02/18 10:01:48;;;;;;;4.60;0.80;;;9.60;96.50;;;;;;4206936;28;20032;-58
2022/02/18 10:03:49;;;;;;;3.00;0.90;;;9.40;96.20;;;;;;4203135;28;20104;-59
2022/02/18 10:05:50;;;;;;;3.70;0.80;;;9.10;96.00;;;;;;4206782;28;20756;-56
2022/02/18 10:08:13;;;;;;;10.97;1.20;;;9.00;96.20;;;;;;4204475;28;20070;-58
2022/02/18 10:10:15;;;;;;;4.00;1.20;;;9.10;96.40;;;;;;4199106;28;20082;-60
2022/02/18 10:12:16;;;;;;;7.10;1.87;;;9.10;96.70;;;;;;4199976;28;20089;-60
2022/02/18 10:14:18;;;;;;;4.40;1.07;;;9.00;96.70;;;;;;4202816;28;20029;-58
2022/02/18 10:16:25;;;;;;;5.13;1.13;;;9.10;96.30;;;;;;4201316;28;20035;-62
2022/02/18 10:18:27;;;;;;;5.93;1.53;;;9.10;96.10;;;;;;4190687;28;20028;-59
2022/02/18 10:20:29;;;;;;;5.93;1.87;;;9.20;96.20;;;;;;4188529;28;20036;-60
2022/02/18 10:22:30;;;;;;;6.50;1.20;;;9.40;96.20;;;;;;4193914;28;20101;-60
2022/02/18 10:24:39;;;;;;;8.50;1.00;;;9.40;95.80;;;;;;4205363;28;20032;-59
2022/02/18 10:26:41;;;;;;;2.13;0.80;;;9.20;93.70;;;;;;4206320;28;20568;-61
2022/02/18 10:28:55;;;;;;;3.97;1.00;;;8.90;94.20;;;;;;4204623;28;20085;-56
2022/02/18 10:31:04;;;;;;;1.53;0.70;;;8.70;93.50;;;;;;4206121;28;20537;-58
2022/02/18 10:33:25;;;;;;;6.17;0.70;;;8.50;93.80;;;;;;4188432;28;20426;-61
2022/02/18 10:35:34;;;;;;;6.50;0.97;;;8.50;93.30;;;;;;4189811;28;20078;-60
2022/02/18 10:37:36;;;;;;;3.33;0.73;;;8.40;93.20;;;;;;4188346;28;20037;-61
2022/02/18 10:39:38;;;;;;;4.50;0.77;;;8.30;93.40;;;;;;4189610;28;20040;-61